Time;durP1;ratioP1;P1;durP2;ratioP2;P2;SDS_P1;SDS_P2;PMS_P1;PMS_P2;Temp;Humidity;BMP_temperature;BMP_pressure;BME280_temperature;BME280_humidity;BME280_pressure;Samples;Min_cycle;Max_cycle;Signal;HPM_P1;HPM_P2
2024/02/19 00:00:54;;;;;;;6.00;4.03;;;8.40;99.90;;;;;;4991995;28;20287;-89
2024/02/19 00:03:21;;;;;;;5.22;3.90;;;8.40;99.90;;;;;;4989494;28;20231;-89
2024/02/19 00:05:50;;;;;;;4.50;3.53;;;8.40;99.90;;;;;;4974048;28;20511;-88
2024/02/19 00:08:17;;;;;;;4.68;3.97;;;8.40;99.90;;;;;;4991297;28;20210;-88
2024/02/19 00:10:44;;;;;;;6.70;3.70;;;8.40;99.90;;;;;;4996843;28;20223;-89
2024/02/19 00:13:13;;;;;;;4.22;3.38;;;8.40;99.90;;;;;;4994429;28;20740;-89
2024/02/19 00:15:39;;;;;;;3.42;3.13;;;8.30;99.90;;;;;;5001929;28;20633;-88
2024/02/19 00:18:07;;;;;;;4.35;3.35;;;8.30;99.90;;;;;;4989905;28;20212;-89
2024/02/19 00:20:34;;;;;;;4.57;3.15;;;8.30;99.90;;;;;;4989253;28;20255;-89
2024/02/19 00:23:01;;;;;;;5.18;3.38;;;8.30;99.90;;;;;;4987013;28;20210;-89
2024/02/19 00:25:29;;;;;;;4.43;3.17;;;8.30;99.90;;;;;;4993748;28;20196;-89
2024/02/19 00:27:56;;;;;;;6.07;3.53;;;8.20;99.90;;;;;;4993051;28;20251;-89
2024/02/19 00:30:25;;;;;;;4.53;3.03;;;8.10;99.90;;;;;;4982457;28;20954;-89
2024/02/19 00:32:53;;;;;;;3.08;2.67;;;8.20;99.90;;;;;;4996565;28;20199;-89
2024/02/19 00:35:21;;;;;;;4.13;2.65;;;8.20;99.90;;;;;;4990761;28;20204;-90
2024/02/19 00:37:49;;;;;;;2.58;2.38;;;8.20;99.90;;;;;;4989875;28;20202;-89
2024/02/19 00:40:16;;;;;;;3.45;1.90;;;8.20;99.90;;;;;;4993722;28;20291;-89
2024/02/19 00:42:43;;;;;;;2.50;2.20;;;8.20;99.90;;;;;;5001259;28;20199;-89
2024/02/19 00:45:11;;;;;;;2.25;2.05;;;8.20;99.90;;;;;;4991135;28;20204;-89
2024/02/19 00:47:39;;;;;;;2.67;2.38;;;8.20;99.90;;;;;;4992519;28;20196;-88
2024/02/19 00:50:07;;;;;;;2.47;2.28;;;8.20;99.90;;;;;;4986892;28;20220;-89
2024/02/19 00:52:35;;;;;;;3.08;2.20;;;8.20;99.90;;;;;;4979502;28;20199;-89
2024/02/19 00:55:01;;;;;;;2.90;2.40;;;8.20;99.90;;;;;;4995768;28;20215;-89
2024/02/19 00:57:28;;;;;;;2.13;1.92;;;8.10;99.90;;;;;;4991739;28;20267;-89
2024/02/19 00:59:55;;;;;;;3.42;2.35;;;8.10;99.90;;;;;;4993033;28;20204;-92
2024/02/19 01:02:23;;;;;;;2.30;2.00;;;8.10;99.90;;;;;;4996099;28;20552;-89
2024/02/19 01:04:53;;;;;;;3.33;2.10;;;8.20;99.90;;;;;;4988687;28;20208;-89
2024/02/19 01:07:20;;;;;;;1.73;1.63;;;8.20;99.90;;;;;;4989402;28;20203;-89
2024/02/19 01:09:47;;;;;;;1.95;1.80;;;8.10;99.90;;;;;;4989698;28;20258;-89
2024/02/19 01:12:14;;;;;;;1.98;1.80;;;8.20;99.90;;;;;;4992140;28;20208;-89
2024/02/19 01:14:42;;;;;;;3.75;1.80;;;8.00;99.90;;;;;;4991554;28;20200;-89
2024/02/19 01:17:09;;;;;;;1.70;1.60;;;8.00;99.90;;;;;;4993313;28;20290;-88
2024/02/19 01:19:38;;;;;;;1.83;1.30;;;8.10;99.90;;;;;;5002555;28;20211;-89
2024/02/19 01:22:06;;;;;;;1.30;1.20;;;8.10;99.90;;;;;;4990334;28;20199;-89
2024/02/19 01:24:33;;;;;;;1.67;1.40;;;8.00;99.90;;;;;;4988091;28;20206;-89
2024/02/19 01:27:00;;;;;;;2.22;1.20;;;8.00;99.90;;;;;;4991820;28;20203;-89
2024/02/19 01:29:27;;;;;;;1.30;1.20;;;8.00;99.90;;;;;;4981968;28;20246;-89
2024/02/19 01:31:54;;;;;;;3.60;1.30;;;8.00;99.90;;;;;;4990547;28;20223;-89
2024/02/19 01:34:22;;;;;;;1.33;1.23;;;8.00;99.90;;;;;;4989507;28;20239;-88
2024/02/19 01:36:49;;;;;;;1.13;0.90;;;8.00;99.90;;;;;;4991171;28;20207;-89
2024/02/19 01:39:17;;;;;;;0.90;0.90;;;8.00;99.90;;;;;;4991063;28;20278;-89
2024/02/19 01:41:44;;;;;;;1.30;1.00;;;8.00;99.90;;;;;;4991633;28;20204;-89
2024/02/19 01:44:11;;;;;;;0.80;0.80;;;7.90;99.90;;;;;;4985528;28;20300;-88
2024/02/19 01:46:40;;;;;;;0.77;0.75;;;7.90;99.90;;;;;;4992848;28;20198;-89
2024/02/19 01:49:10;;;;;;;0.80;0.80;;;7.90;99.90;;;;;;4976689;28;20210;-89
2024/02/19 01:51:37;;;;;;;1.15;0.90;;;7.90;99.90;;;;;;4986471;28;20589;-89
2024/02/19 01:54:05;;;;;;;0.82;0.80;;;7.90;99.90;;;;;;4977007;28;20226;-89
2024/02/19 01:56:34;;;;;;;0.68;0.68;;;7.90;99.90;;;;;;4994259;28;20726;-89
2024/02/19 01:59:02;;;;;;;0.70;0.70;;;7.90;99.90;;;;;;4978446;28;20212;-89
2024/02/19 02:01:29;;;;;;;0.73;0.73;;;7.90;99.90;;;;;;4992565;28;20202;-88
2024/02/19 02:03:57;;;;;;;0.75;0.70;;;7.90;99.90;;;;;;4988724;28;20250;-88
2024/02/19 02:06:24;;;;;;;0.60;0.60;;;7.90;99.90;;;;;;4996970;28;20214;-89
2024/02/19 02:08:52;;;;;;;0.80;0.60;;;7.90;99.90;;;;;;4991556;28;20200;-89
2024/02/19 02:11:20;;;;;;;0.70;0.70;;;7.80;99.90;;;;;;5002271;28;20223;-88
2024/02/19 02:13:48;;;;;;;0.65;0.65;;;7.80;99.90;;;;;;4993422;28;20196;-90
2024/02/19 02:16:26;;;;;;;0.75;0.75;;;7.90;99.90;;;;;;4992479;28;20216;-89
2024/02/19 02:18:53;;;;;;;0.40;0.40;;;7.80;99.90;;;;;;4993531;28;20207;-89
2024/02/19 02:21:20;;;;;;;1.95;0.60;;;7.80;99.90;;;;;;4996333;28;20614;-89
2024/02/19 02:23:47;;;;;;;0.52;0.52;;;7.80;99.90;;;;;;4994461;28;20206;-89
2024/02/19 02:26:14;;;;;;;0.55;0.55;;;7.70;99.90;;;;;;5003254;28;20282;-88
2024/02/19 02:28:43;;;;;;;0.57;0.50;;;7.70;99.90;;;;;;4996054;28;20654;-89
2024/02/19 02:31:10;;;;;;;1.33;0.60;;;7.70;99.90;;;;;;4988912;28;20228;-89
2024/02/19 02:33:36;;;;;;;0.57;0.57;;;7.60;99.90;;;;;;4975564;28;20200;-90
2024/02/19 02:36:05;;;;;;;0.60;0.60;;;7.70;99.90;;;;;;4988851;28;20204;-88
2024/02/19 02:38:32;;;;;;;0.65;0.65;;;7.70;99.90;;;;;;4977076;28;20564;-89
2024/02/19 02:40:59;;;;;;;0.70;0.65;;;7.60;99.90;;;;;;4992962;28;20215;-89
2024/02/19 02:43:27;;;;;;;0.45;0.45;;;7.60;99.90;;;;;;4993378;28;20409;-89
2024/02/19 02:45:55;;;;;;;0.50;0.50;;;7.60;99.90;;;;;;4987804;28;20255;-89
2024/02/19 02:48:23;;;;;;;0.68;0.68;;;7.60;99.90;;;;;;4991922;28;20210;-89
2024/02/19 02:50:50;;;;;;;0.75;0.65;;;7.60;99.90;;;;;;4990514;28;20220;-88
2024/02/19 02:53:17;;;;;;;0.47;0.45;;;7.60;99.90;;;;;;4994521;28;20200;-89
2024/02/19 02:55:44;;;;;;;0.77;0.77;;;7.60;99.90;;;;;;4987287;28;20200;-89
2024/02/19 02:58:11;;;;;;;0.90;0.70;;;7.60;99.90;;;;;;4976108;28;20219;-89
2024/02/19 03:00:38;;;;;;;1.05;0.57;;;7.50;99.90;;;;;;4992255;28;20203;-89
2024/02/19 03:03:07;;;;;;;0.70;0.70;;;7.50;99.90;;;;;;4993589;28;20204;-89
2024/02/19 03:05:34;;;;;;;0.60;0.60;;;7.60;99.90;;;;;;4986081;28;20570;-89
2024/02/19 03:08:01;;;;;;;1.38;0.88;;;7.50;99.90;;;;;;4992016;28;20772;-88
2024/02/19 03:10:27;;;;;;;0.73;0.73;;;7.60;99.90;;;;;;4996655;28;20205;-89
2024/02/19 03:12:54;;;;;;;0.65;0.65;;;7.70;99.90;;;;;;4996004;28;20227;-89
2024/02/19 03:15:21;;;;;;;1.10;0.57;;;7.70;99.90;;;;;;4997880;28;20210;-88
2024/02/19 03:17:48;;;;;;;0.77;0.77;;;7.70;99.90;;;;;;4992192;28;20204;-88
2024/02/19 03:20:18;;;;;;;0.60;0.60;;;7.70;99.90;;;;;;4990601;28;20216;-88
2024/02/19 03:22:45;;;;;;;0.60;0.60;;;7.70;99.90;;;;;;4996511;28;20208;-89
2024/02/19 03:25:13;;;;;;;0.63;0.63;;;7.60;99.90;;;;;;4995469;28;20207;-88
2024/02/19 03:27:40;;;;;;;0.50;0.50;;;7.70;99.90;;;;;;4996563;28;20542;-88
2024/02/19 03:30:09;;;;;;;0.43;0.43;;;7.80;99.90;;;;;;4988718;28;20204;-89
2024/02/19 03:32:36;;;;;;;0.88;0.60;;;7.80;99.90;;;;;;4991532;28;20223;-89
2024/02/19 03:35:04;;;;;;;0.65;0.65;;;7.80;99.90;;;;;;4993858;28;20211;-88
2024/02/19 03:37:32;;;;;;;0.60;0.60;;;7.80;99.90;;;;;;4991535;28;20200;-88
2024/02/19 03:39:59;;;;;;;0.60;0.55;;;7.80;99.90;;;;;;4990208;28;20235;-88
2024/02/19 03:42:26;;;;;;;0.60;0.50;;;7.70;99.90;;;;;;4991598;28;20200;-89
2024/02/19 03:44:53;;;;;;;0.90;0.52;;;7.70;99.90;;;;;;4992491;28;20200;-89
2024/02/19 03:47:20;;;;;;;0.93;0.60;;;7.60;99.90;;;;;;4994285;28;20660;-89
2024/02/19 03:49:47;;;;;;;0.52;0.52;;;7.60;99.90;;;;;;4973403;28;20200;-88
2024/02/19 03:52:14;;;;;;;0.50;0.50;;;7.70;99.90;;;;;;4994826;28;20231;-88
2024/02/19 03:54:42;;;;;;;0.60;0.60;;;7.70;99.90;;;;;;4993489;28;20207;-88
2024/02/19 03:57:09;;;;;;;0.40;0.40;;;7.60;99.90;;;;;;4996127;28;20758;-89
2024/02/19 03:59:36;;;;;;;1.17;0.60;;;7.70;99.90;;;;;;4987479;28;20234;-89
2024/02/19 04:02:03;;;;;;;0.57;0.57;;;7.80;99.90;;;;;;4990508;28;20204;-89
2024/02/19 04:04:30;;;;;;;0.57;0.57;;;7.70;99.90;;;;;;5002562;28;20200;-89
2024/02/19 04:06:56;;;;;;;0.77;0.60;;;7.70;99.90;;;;;;4992383;28;20203;-89
2024/02/19 04:09:23;;;;;;;0.70;0.70;;;7.80;99.90;;;;;;4989569;28;20198;-89
2024/02/19 04:11:51;;;;;;;0.82;0.50;;;7.80;99.90;;;;;;4989081;28;20224;-89
2024/02/19 04:14:18;;;;;;;0.50;0.50;;;7.90;99.90;;;;;;4990078;28;20200;-89
2024/02/19 04:16:45;;;;;;;0.60;0.60;;;7.80;99.90;;;;;;4990861;28;20200;-88
2024/02/19 04:19:12;;;;;;;0.60;0.60;;;7.80;99.90;;;;;;4992275;28;20212;-88
2024/02/19 04:21:44;;;;;;;0.80;0.80;;;7.80;99.90;;;;;;4986829;28;20200;-89
2024/02/19 04:24:12;;;;;;;1.00;0.82;;;7.70;99.90;;;;;;4987064;28;20204;-89
2024/02/19 04:26:38;;;;;;;0.40;0.40;;;7.60;99.90;;;;;;4988017;28;20193;-88
2024/02/19 04:29:07;;;;;;;1.85;1.10;;;7.70;99.90;;;;;;4991513;28;20239;-89
2024/02/19 04:31:33;;;;;;;0.70;0.70;;;7.70;99.90;;;;;;4984196;28;20223;-89
2024/02/19 04:34:00;;;;;;;0.80;0.80;;;7.70;99.90;;;;;;4991897;28;20211;-89
2024/02/19 04:36:27;;;;;;;0.88;0.60;;;7.70;99.90;;;;;;4992953;28;20200;-89
2024/02/19 04:38:54;;;;;;;0.60;0.60;;;7.60;99.90;;;;;;4989829;28;20330;-88
2024/02/19 04:41:21;;;;;;;0.60;0.60;;;7.60;99.90;;;;;;4993049;28;20957;-88
2024/02/19 04:43:48;;;;;;;0.68;0.68;;;7.70;99.90;;;;;;4991906;28;20211;-89
2024/02/19 04:46:16;;;;;;;0.70;0.70;;;7.80;99.90;;;;;;4987915;28;20210;-89
2024/02/19 04:48:43;;;;;;;0.50;0.50;;;7.90;99.90;;;;;;4994421;28;20199;-88
2024/02/19 04:51:10;;;;;;;1.02;0.80;;;7.90;99.90;;;;;;4993408;28;20680;-89
2024/02/19 04:53:37;;;;;;;0.77;0.77;;;7.90;99.90;;;;;;4991514;28;20574;-89
2024/02/19 04:56:04;;;;;;;0.77;0.70;;;7.80;99.90;;;;;;4990096;28;20706;-89
2024/02/19 04:58:31;;;;;;;0.77;0.77;;;7.90;99.90;;;;;;4995634;28;20220;-88
2024/02/19 05:00:58;;;;;;;0.85;0.70;;;8.00;99.90;;;;;;4986510;28;20649;-89
2024/02/19 05:03:26;;;;;;;0.80;0.80;;;7.90;99.90;;;;;;4980995;28;20215;-89
2024/02/19 05:05:54;;;;;;;1.00;1.00;;;7.90;99.90;;;;;;4990245;28;20196;-89
2024/02/19 05:08:22;;;;;;;0.80;0.80;;;8.00;99.90;;;;;;4985368;28;20212;-89
2024/02/19 05:10:49;;;;;;;1.13;0.93;;;7.90;99.90;;;;;;4992546;28;20196;-90
2024/02/19 05:13:16;;;;;;;2.10;1.10;;;7.90;99.90;;;;;;4991283;28;20231;-89
2024/02/19 05:15:44;;;;;;;1.08;0.90;;;7.90;99.90;;;;;;4987291;28;20200;-90
2024/02/19 05:18:12;;;;;;;1.48;1.38;;;7.90;99.90;;;;;;4983712;28;20207;-89
2024/02/19 05:20:41;;;;;;;1.23;0.93;;;8.00;99.90;;;;;;4984565;28;20200;-89
2024/02/19 05:23:08;;;;;;;0.70;0.70;;;8.10;99.90;;;;;;4993443;28;20196;-89
2024/02/19 05:25:35;;;;;;;1.10;1.00;;;8.00;99.90;;;;;;4992836;28;20203;-88
2024/02/19 05:28:08;;;;;;;0.90;0.90;;;8.10;99.90;;;;;;4985175;28;20204;-90
2024/02/19 05:30:36;;;;;;;0.90;0.90;;;8.10;99.90;;;;;;4977732;28;20199;-90
2024/02/19 05:33:03;;;;;;;1.33;1.05;;;8.10;99.90;;;;;;4990967;28;20274;-89
2024/02/19 05:35:30;;;;;;;1.33;1.23;;;8.20;99.90;;;;;;4993627;28;20206;-90
2024/02/19 05:37:58;;;;;;;1.45;1.15;;;8.10;99.90;;;;;;4987528;28;20652;-90
2024/02/19 05:40:25;;;;;;;1.20;1.10;;;8.10;99.90;;;;;;4994824;28;20668;-90
2024/02/19 05:42:52;;;;;;;0.73;0.73;;;8.00;99.90;;;;;;4994633;28;20196;-89
2024/02/19 05:45:19;;;;;;;1.10;0.93;;;8.10;99.90;;;;;;4992965;28;20207;-89
2024/02/19 05:47:46;;;;;;;1.20;1.10;;;8.20;99.90;;;;;;4990827;28;20196;-90
2024/02/19 05:50:13;;;;;;;1.00;1.00;;;8.20;99.90;;;;;;4996541;28;20287;-90
2024/02/19 05:52:40;;;;;;;1.25;1.10;;;8.30;99.90;;;;;;4986520;28;20263;-90
2024/02/19 05:55:14;;;;;;;1.33;1.23;;;8.30;99.90;;;;;;4993675;28;20196;-92
2024/02/19 05:57:42;;;;;;;2.85;1.10;;;8.30;99.90;;;;;;4993806;28;20255;-90
2024/02/19 06:00:14;;;;;;;1.85;1.30;;;8.20;99.90;;;;;;4992234;28;20204;-89
2024/02/19 06:02:42;;;;;;;2.28;1.38;;;8.20;99.90;;;;;;4994078;28;20208;-90
2024/02/19 06:05:09;;;;;;;1.60;1.30;;;8.20;99.90;;;;;;4994643;28;20208;-89
2024/02/19 06:07:36;;;;;;;2.90;1.30;;;8.20;99.90;;;;;;4993793;28;20203;-89
2024/02/19 06:10:04;;;;;;;1.27;1.17;;;8.10;99.90;;;;;;4993147;28;20208;-91
2024/02/19 06:12:32;;;;;;;1.30;1.20;;;8.20;99.90;;;;;;5000371;28;20270;-91
2024/02/19 06:14:59;;;;;;;3.05;1.30;;;8.20;99.90;;;;;;4993593;28;20223;-92
2024/02/19 06:17:26;;;;;;;2.00;1.20;;;8.40;99.90;;;;;;4991913;28;20215;-90
2024/02/19 06:19:53;;;;;;;1.65;1.35;;;8.40;99.90;;;;;;5004337;28;20208;-92
2024/02/19 06:22:19;;;;;;;1.77;1.40;;;8.50;99.90;;;;;;4994081;28;20206;-91
2024/02/19 06:24:46;;;;;;;1.83;1.60;;;8.50;99.90;;;;;;4992823;28;20211;-90
2024/02/19 06:27:13;;;;;;;1.60;1.50;;;8.50;99.90;;;;;;4998780;28;20212;-91
2024/02/19 06:29:42;;;;;;;2.03;1.35;;;8.30;99.90;;;;;;4968900;28;20193;-90
2024/02/19 06:35:40;;;;;;;1.63;1.48;;;8.20;99.90;;;;;;4987016;28;20239;-90
2024/02/19 06:41:36;;;;;;;1.52;1.42;;;8.20;99.90;;;;;;4992194;28;20234;-88
2024/02/19 06:44:03;;;;;;;1.83;1.55;;;8.30;99.90;;;;;;4976586;28;20204;-89
2024/02/19 06:46:31;;;;;;;1.95;1.60;;;8.30;99.90;;;;;;4994778;28;20221;-89
2024/02/19 06:48:59;;;;;;;6.05;1.85;;;8.20;99.90;;;;;;4992228;28;20204;-88
2024/02/19 06:51:29;;;;;;;4.15;1.70;;;8.20;99.90;;;;;;4998192;28;20241;-89
2024/02/19 06:53:56;;;;;;;1.27;1.17;;;8.30;99.90;;;;;;4991896;28;20564;-90
2024/02/19 06:56:29;;;;;;;1.30;1.20;;;8.30;99.90;;;;;;4991485;28;20223;-90
2024/02/19 06:58:57;;;;;;;1.65;1.55;;;8.30;99.90;;;;;;4992264;28;20227;-90
2024/02/19 07:01:24;;;;;;;3.63;1.83;;;8.50;99.90;;;;;;4975950;28;20279;-88
2024/02/19 07:03:53;;;;;;;1.23;1.13;;;8.50;99.90;;;;;;4993649;28;20204;-90
2024/02/19 07:06:20;;;;;;;3.28;1.38;;;8.50;99.90;;;;;;4990362;28;20196;-89
2024/02/19 07:08:47;;;;;;;1.63;1.48;;;8.60;99.90;;;;;;4987613;28;20645;-88
2024/02/19 07:11:14;;;;;;;1.73;1.10;;;8.70;99.90;;;;;;4987199;28;20215;-91
2024/02/19 07:13:49;;;;;;;1.45;1.10;;;8.70;99.90;;;;;;4995332;28;20219;-91
2024/02/19 07:16:16;;;;;;;1.30;1.20;;;8.80;99.90;;;;;;4999448;28;20204;-90
2024/02/19 07:18:55;;;;;;;2.40;1.10;;;8.80;99.90;;;;;;4994912;28;20212;-89
2024/02/19 07:21:22;;;;;;;4.63;1.20;;;8.80;99.90;;;;;;4995790;28;20200;-93
2024/02/19 07:23:49;;;;;;;1.95;1.10;;;8.90;99.90;;;;;;4998027;28;20196;-92
2024/02/19 07:26:17;;;;;;;2.78;1.15;;;8.90;99.90;;;;;;5003067;28;20206;-91
2024/02/19 07:28:44;;;;;;;1.00;1.00;;;9.00;99.90;;;;;;4996061;28;20215;-91
2024/02/19 07:31:11;;;;;;;1.10;1.02;;;9.00;99.90;;;;;;4959460;28;20197;-91
2024/02/19 07:33:38;;;;;;;3.67;1.00;;;9.10;99.90;;;;;;4997869;28;20269;-91
2024/02/19 07:36:07;;;;;;;0.80;0.80;;;9.00;99.90;;;;;;4997638;28;20227;-91
2024/02/19 07:38:35;;;;;;;0.88;0.88;;;9.00;99.90;;;;;;4996179;28;20564;-91
2024/02/19 07:41:02;;;;;;;1.17;1.08;;;9.00;99.90;;;;;;4994953;28;20215;-91
2024/02/19 07:43:30;;;;;;;0.98;0.90;;;9.10;99.90;;;;;;4996079;28;20671;-91
2024/02/19 07:45:57;;;;;;;1.10;0.88;;;9.30;99.90;;;;;;4998010;28;20203;-91
2024/02/19 07:48:24;;;;;;;0.82;0.75;;;9.30;99.90;;;;;;4977916;28;20227;-91
2024/02/19 07:50:52;;;;;;;0.80;0.80;;;9.30;99.90;;;;;;4995681;28;20657;-90
2024/02/19 07:56:08;;;;;;;2.08;1.98;;;9.20;99.90;;;;;;5048048;23;20212;-91
2024/02/19 07:58:36;;;;;;;1.80;1.08;;;9.20;99.90;;;;;;4975566;28;20227;-91
2024/02/19 08:01:04;;;;;;;1.00;0.90;;;9.20;99.90;;;;;;4975705;28;20587;-90
2024/02/19 08:03:33;;;;;;;1.58;1.10;;;9.10;99.90;;;;;;4974200;28;20642;-90
2024/02/19 08:06:00;;;;;;;1.65;1.30;;;9.10;99.90;;;;;;4974647;28;20201;-91
2024/02/19 08:08:30;;;;;;;5.65;1.30;;;9.10;99.90;;;;;;4975819;28;20674;-90
2024/02/19 08:10:58;;;;;;;2.17;1.40;;;9.10;99.90;;;;;;4961814;28;20230;-90
2024/02/19 08:13:27;;;;;;;1.30;1.20;;;9.20;99.90;;;;;;4976794;28;20677;-90
2024/02/19 08:16:01;;;;;;;1.35;1.25;;;9.20;99.90;;;;;;4988148;28;20246;-91
2024/02/19 08:18:31;;;;;;;1.05;1.02;;;9.20;99.90;;;;;;4975788;28;20880;-90
2024/02/19 08:20:58;;;;;;;1.33;1.23;;;9.30;99.90;;;;;;4969870;28;20207;-91
2024/02/19 08:23:26;;;;;;;2.72;1.60;;;9.20;99.90;;;;;;4959090;28;20531;-90
2024/02/19 08:25:55;;;;;;;1.75;1.35;;;9.40;99.90;;;;;;4973496;28;20203;-91
2024/02/19 08:28:22;;;;;;;1.55;1.45;;;9.40;99.90;;;;;;4971506;28;20214;-90
2024/02/19 08:30:52;;;;;;;2.85;1.40;;;9.40;99.90;;;;;;4972579;28;20196;-91
2024/02/19 08:33:19;;;;;;;1.67;1.33;;;9.40;99.90;;;;;;4974646;28;20232;-91
2024/02/19 08:35:46;;;;;;;2.13;1.50;;;9.40;99.90;;;;;;4973615;28;20482;-91
2024/02/19 08:38:19;;;;;;;2.17;1.50;;;9.40;99.90;;;;;;4975424;28;20209;-91
2024/02/19 08:40:55;;;;;;;3.45;1.48;;;9.60;99.90;;;;;;4975870;28;20204;-90
2024/02/19 08:43:55;;;;;;;3.50;1.50;;;9.80;99.90;;;;;;4975164;28;20210;-91
2024/02/19 08:46:34;;;;;;;4.65;2.03;;;10.10;98.20;;;;;;4974521;28;20236;-90
2024/02/19 08:49:02;;;;;;;3.17;1.55;;;10.30;96.30;;;;;;4879795;29;20200;-94
2024/02/19 08:58:35;;;;;;;2.05;1.30;;;10.20;96.10;;;;;;4882347;29;20216;-91
2024/02/19 09:01:29;;;;;;;2.53;1.50;;;10.30;95.80;;;;;;4929099;29;20205;-88
2024/02/19 09:03:57;;;;;;;2.60;1.42;;;10.20;95.80;;;;;;4966217;28;20205;-88
2024/02/19 09:06:23;;;;;;;2.72;1.67;;;10.10;95.80;;;;;;4953719;28;20197;-88
2024/02/19 09:08:51;;;;;;;2.08;1.80;;;10.00;96.00;;;;;;4950962;28;20733;-89
2024/02/19 09:11:19;;;;;;;3.88;1.77;;;9.90;96.10;;;;;;4952949;28;20201;-88
2024/02/19 09:13:46;;;;;;;2.25;1.67;;;10.00;95.70;;;;;;4949744;28;20221;-88
2024/02/19 09:16:15;;;;;;;3.47;1.92;;;10.00;95.80;;;;;;4958901;28;20201;-88
2024/02/19 09:21:57;;;;;;;3.53;1.60;;;9.80;96.10;;;;;;4921897;29;20337;-89
2024/02/19 09:24:24;;;;;;;2.83;1.98;;;9.70;96.00;;;;;;4966921;28;20198;-88
2024/02/19 09:26:52;;;;;;;3.20;1.90;;;9.70;96.10;;;;;;4953651;28;20201;-88
2024/02/19 09:29:19;;;;;;;2.70;1.80;;;9.70;96.00;;;;;;4951352;28;20292;-88
2024/02/19 09:31:47;;;;;;;2.75;1.60;;;9.70;96.30;;;;;;4952534;28;20201;-88
2024/02/19 09:34:14;;;;;;;6.97;1.90;;;9.80;96.10;;;;;;4951331;28;20229;-89
2024/02/19 09:36:44;;;;;;;2.70;1.77;;;9.90;95.40;;;;;;4959806;28;20543;-88
2024/02/19 09:39:11;;;;;;;3.72;2.00;;;10.00;94.40;;;;;;4954526;28;20650;-88
2024/02/19 09:42:05;;;;;;;3.63;1.60;;;10.40;92.60;;;;;;4954837;28;20201;-89
2024/02/19 09:44:33;;;;;;;2.78;1.50;;;10.90;91.00;;;;;;4955521;28;20292;-89
2024/02/19 09:47:32;;;;;;;2.15;1.55;;;11.60;86.00;;;;;;4953638;28;20208;-90
2024/02/19 09:50:02;;;;;;;2.35;1.73;;;12.30;79.70;;;;;;4951893;28;20205;-91
2024/02/19 09:52:31;;;;;;;3.35;1.38;;;13.00;65.60;;;;;;4948666;28;20631;-88
2024/02/19 09:54:57;;;;;;;4.20;1.60;;;13.30;49.80;;;;;;4953313;29;20555;-89
2024/02/19 09:57:25;;;;;;;4.00;1.65;;;14.40;44.20;;;;;;4955946;28;20232;-89
2024/02/19 09:59:52;;;;;;;2.13;1.33;;;14.40;37.30;;;;;;4967084;28;20198;-89
2024/02/19 10:02:21;;;;;;;2.28;1.13;;;14.10;37.80;;;;;;4958031;28;20207;-90
2024/02/19 10:04:48;;;;;;;2.13;1.20;;;13.70;40.30;;;;;;4952291;28;20209;-87
2024/02/19 10:07:22;;;;;;;3.17;1.42;;;13.90;38.70;;;;;;4952416;28;20197;-90
2024/02/19 10:09:49;;;;;;;3.08;1.10;;;14.20;37.70;;;;;;4954157;28;20201;-89
2024/02/19 10:12:18;;;;;;;1.35;0.95;;;14.00;36.50;;;;;;4956018;28;20201;-90
2024/02/19 10:14:45;;;;;;;1.50;1.13;;;13.60;37.60;;;;;;4961140;28;20236;-90
2024/02/19 10:17:12;;;;;;;1.02;1.00;;;13.30;39.90;;;;;;4955485;28;20197;-90
2024/02/19 10:19:39;;;;;;;1.75;1.17;;;12.70;41.60;;;;;;4939926;29;20193;-89
2024/02/19 10:22:09;;;;;;;2.58;1.40;;;12.40;44.10;;;;;;4958367;28;20623;-90
2024/02/19 10:28:34;;;;;;;2.70;1.17;;;11.60;52.50;;;;;;4898908;29;20741;-89
2024/02/19 10:31:04;;;;;;;2.70;1.02;;;11.40;57.60;;;;;;4933900;29;20210;-89
2024/02/19 10:33:35;;;;;;;2.53;1.00;;;11.70;59.60;;;;;;4967847;28;20260;-89
2024/02/19 10:36:03;;;;;;;1.20;0.98;;;12.30;48.90;;;;;;4970201;28;20623;-91
2024/02/19 10:38:30;;;;;;;2.00;1.00;;;12.70;44.10;;;;;;4950095;28;20225;-91
2024/02/19 10:40:57;;;;;;;1.48;1.00;;;13.30;35.50;;;;;;4950154;28;20209;-90
2024/02/19 10:56:10;;;;;;;1.75;1.10;;;11.50;40.30;;;;;;4949030;28;20216;-90
2024/02/19 11:04:54;;;;;;;4.47;1.15;;;11.10;47.80;;;;;;4938086;28;20232;-88
2024/02/19 11:07:22;;;;;;;1.88;1.15;;;11.20;47.80;;;;;;4964073;28;20217;-85
2024/02/19 11:09:58;;;;;;;2.78;1.25;;;11.10;49.00;;;;;;4953411;28;20202;-86
2024/02/19 11:12:27;;;;;;;1.55;1.10;;;11.00;51.50;;;;;;4950989;28;20238;-87
2024/02/19 11:14:54;;;;;;;1.92;1.27;;;10.80;54.60;;;;;;4955702;28;20221;-86
2024/02/19 11:17:21;;;;;;;1.75;1.25;;;10.90;55.10;;;;;;4940518;29;20205;-86
2024/02/19 11:19:50;;;;;;;1.60;1.50;;;10.70;56.70;;;;;;4955412;28;20198;-87
2024/02/19 11:22:29;;;;;;;3.13;1.20;;;10.70;58.70;;;;;;4953843;28;20205;-86
2024/02/19 11:24:56;;;;;;;2.60;1.48;;;10.70;59.80;;;;;;4960611;28;20205;-86
2024/02/19 11:27:22;;;;;;;4.85;1.52;;;10.70;61.00;;;;;;4972853;28;20205;-86
2024/02/19 11:29:55;;;;;;;1.48;1.20;;;10.60;58.40;;;;;;4971040;28;20203;-86
2024/02/19 11:32:23;;;;;;;1.98;1.40;;;10.60;60.20;;;;;;4964260;28;20658;-86
2024/02/19 11:34:51;;;;;;;1.90;1.40;;;10.70;62.90;;;;;;4973468;28;20614;-86
2024/02/19 11:37:21;;;;;;;3.03;1.27;;;10.70;60.50;;;;;;4969763;28;20288;-86
2024/02/19 11:39:48;;;;;;;1.15;0.93;;;10.70;58.20;;;;;;4972709;28;20292;-86
2024/02/19 11:42:15;;;;;;;2.15;1.23;;;10.70;58.10;;;;;;4970347;28;20196;-86
2024/02/19 11:44:45;;;;;;;2.83;1.20;;;10.80;57.30;;;;;;4970751;28;20201;-85
2024/02/19 11:47:13;;;;;;;2.17;1.30;;;11.00;54.20;;;;;;4967791;28;20569;-86
2024/02/19 11:49:40;;;;;;;3.03;1.30;;;11.00;53.50;;;;;;4949671;28;20213;-87
2024/02/19 11:52:09;;;;;;;3.30;1.25;;;11.00;55.40;;;;;;4971917;28;20288;-86
2024/02/19 11:54:38;;;;;;;2.28;1.30;;;11.00;52.80;;;;;;4976430;28;20231;-86
2024/02/19 11:57:07;;;;;;;2.53;1.48;;;10.90;51.60;;;;;;4973353;28;20244;-86
2024/02/19 11:59:36;;;;;;;2.80;1.38;;;11.00;50.20;;;;;;4957514;28;20200;-87
2024/02/19 12:09:35;;;;;;;3.40;1.08;;;10.80;49.20;;;;;;4917248;29;20644;-90
2024/02/19 12:16:25;;;;;;;2.92;1.40;;;10.90;47.70;;;;;;4898791;29;20262;-89
2024/02/19 12:25:45;;;;;;;3.40;1.30;;;10.80;52.30;;;;;;4957963;28;20202;-89
2024/02/19 12:34:54;;;;;;;2.30;1.25;;;11.00;51.50;;;;;;4955984;29;20264;-90
2024/02/19 12:57:10;;;;;;;1.33;1.00;;;12.20;37.00;;;;;;4963749;28;20288;-89
2024/02/19 13:10:13;;;;;;;2.38;1.13;;;11.80;39.90;;;;;;4879063;29;20171;-91
2024/02/19 13:33:09;;;;;;;1.88;1.10;;;10.60;52.30;;;;;;4878585;29;20226;-89
2024/02/19 13:35:55;;;;;;;2.28;0.95;;;10.60;53.90;;;;;;4875644;29;20294;-89
2024/02/19 13:38:25;;;;;;;2.97;0.93;;;10.40;56.40;;;;;;4858982;29;20240;-88
2024/02/19 13:40:55;;;;;;;1.40;0.80;;;10.30;57.10;;;;;;4904730;29;20238;-88
2024/02/19 13:43:22;;;;;;;1.48;1.00;;;10.30;57.20;;;;;;4911652;29;20262;-88
2024/02/19 13:45:58;;;;;;;2.58;1.17;;;10.10;57.30;;;;;;4930922;28;20205;-89
2024/02/19 13:48:27;;;;;;;2.20;1.05;;;10.10;55.30;;;;;;4970686;28;20623;-89
2024/02/19 14:23:46;;;;;;;1.83;1.10;;;10.70;36.90;;;;;;5667972;23;20218;-89
2024/02/19 14:26:19;;;;;;;1.23;0.75;;;10.60;39.10;;;;;;4997249;28;20206;-89
2024/02/19 14:28:49;;;;;;;2.58;0.85;;;10.40;39.10;;;;;;5012619;28;20277;-88
2024/02/19 14:31:16;;;;;;;2.10;1.20;;;10.30;40.80;;;;;;4995677;28;20207;-88
2024/02/19 14:33:44;;;;;;;2.65;1.00;;;10.20;42.90;;;;;;5014762;28;20305;-89
2024/02/19 14:36:13;;;;;;;2.20;1.00;;;10.20;39.10;;;;;;5014920;28;20234;-89
2024/02/19 14:38:58;;;;;;;2.22;0.85;;;10.30;41.40;;;;;;5016264;28;20625;-89
2024/02/19 14:41:26;;;;;;;1.80;1.10;;;10.30;39.80;;;;;;4997371;28;20202;-88
2024/02/19 14:43:54;;;;;;;2.05;0.90;;;10.40;38.30;;;;;;4983338;28;20199;-90
2024/02/19 15:04:15;;;;;;;3.03;1.10;;;10.00;45.00;;;;;;5748253;23;20300;-89
2024/02/19 15:10:16;;;;;;;1.15;0.90;;;9.80;44.10;;;;;;4998152;28;20164;-94
2024/02/19 15:12:43;;;;;;;4.43;1.02;;;9.80;45.00;;;;;;5006375;28;20206;-91
2024/02/19 15:15:20;;;;;;;3.83;1.17;;;9.70;46.80;;;;;;5001156;28;20706;-90
2024/02/19 15:17:55;;;;;;;2.33;1.00;;;9.60;46.70;;;;;;4975886;28;20243;-92
2024/02/19 15:24:11;;;;;;;2.25;1.20;;;9.50;47.90;;;;;;4997102;28;20187;-91
2024/02/19 15:26:40;;;;;;;2.78;1.00;;;9.40;49.20;;;;;;4979615;28;20200;-89
2024/02/19 15:29:07;;;;;;;3.20;1.42;;;9.60;50.50;;;;;;4997591;28;20192;-89
2024/02/19 15:31:34;;;;;;;5.20;1.38;;;9.70;51.30;;;;;;5015607;28;20239;-89
2024/02/19 15:34:01;;;;;;;2.35;1.15;;;9.60;51.80;;;;;;5015910;28;20222;-88
2024/02/19 15:36:30;;;;;;;4.05;1.23;;;9.50;52.00;;;;;;4999626;28;20207;-89
2024/02/19 15:42:36;;;;;;;2.33;1.10;;;9.60;53.00;;;;;;4978510;28;20201;-91
2024/02/19 15:45:05;;;;;;;2.08;1.08;;;9.70;52.00;;;;;;5000613;28;20270;-89
2024/02/19 15:47:33;;;;;;;3.80;1.15;;;9.50;52.20;;;;;;4984443;28;20219;-89
2024/02/19 15:50:00;;;;;;;4.95;1.30;;;9.50;54.30;;;;;;4979483;28;20203;-90
2024/02/19 15:52:57;;;;;;;2.22;1.02;;;9.40;55.80;;;;;;5003849;28;20270;-89
2024/02/19 15:55:24;;;;;;;2.47;1.08;;;9.40;55.20;;;;;;4997539;28;20247;-89
2024/02/19 16:00:29;;;;;;;4.57;1.20;;;9.40;54.50;;;;;;5081506;23;20239;-87
2024/02/19 16:02:56;;;;;;;2.97;1.00;;;9.20;55.00;;;;;;5015952;28;20227;-88
2024/02/19 16:05:39;;;;;;;4.00;1.20;;;9.20;55.60;;;;;;4998729;28;20206;-88